Time;durP1;ratioP1;P1;durP2;ratioP2;P2;SDS_P1;SDS_P2;PMS_P1;PMS_P2;Temp;Humidity;BMP_temperature;BMP_pressure;BME280_temperature;BME280_humidity;BME280_pressure;Samples;Min_cycle;Max_cycle;Signal;HPM_P1;HPM_P2
2022/12/13 00:01:22;;;;;;;19.67;11.95;;;;;;;;;;4958488;28;20101;-78
2022/12/13 00:09:09;;;;;;;20.00;11.60;;;;;;;;;;5123539;22;20077;-78
2022/12/13 00:11:53;;;;;;;20.83;12.35;;;;;;;;;;5034970;28;20041;-77
2022/12/13 00:14:22;;;;;;;21.17;11.77;;;;;;;;;;5058550;28;20025;-78
2022/12/13 00:16:49;;;;;;;21.42;12.68;;;;;;;;;;5055232;28;21115;-79
2022/12/13 00:19:17;;;;;;;22.90;12.50;;;;;;;;;;5040595;28;20055;-79
2022/12/13 00:21:50;;;;;;;23.17;13.35;;;;;;;;;;5033108;28;20048;-78
2022/12/13 00:24:22;;;;;;;20.63;11.88;;;;;;;;;;5053665;28;20024;-79
2022/12/13 00:26:58;;;;;;;22.55;12.00;;;;;;;;;;5047019;28;20506;-78
2022/12/13 00:29:24;;;;;;;20.15;11.60;;;;;;;;;;5020460;28;20040;-78
2022/12/13 00:31:50;;;;;;;31.40;15.15;;;;;;;;;;5047131;28;20044;-78
2022/12/13 00:34:17;;;;;;;19.42;11.20;;;;;;;;;;5036239;28;20481;-78
2022/12/13 00:36:43;;;;;;;19.52;11.65;;;;;;;;;;5054004;28;20021;-77
2022/12/13 00:39:12;;;;;;;18.23;10.25;;;;;;;;;;5053648;28;20017;-78
2022/12/13 00:41:39;;;;;;;20.23;11.35;;;;;;;;;;5054411;28;20052;-77
2022/12/13 00:44:05;;;;;;;18.17;10.75;;;;;;;;;;5054553;28;20032;-77
2022/12/13 00:49:37;;;;;;;20.40;11.95;;;;;;;;;;4972937;28;20134;-78
2022/12/13 00:52:14;;;;;;;21.02;11.90;;;;;;;;;;5031548;28;20374;-78
2022/12/13 00:54:51;;;;;;;20.23;12.38;;;;;;;;;;5052142;28;20024;-77
2022/12/13 00:57:35;;;;;;;17.67;10.40;;;;;;;;;;5051058;28;20043;-78
2022/12/13 01:00:01;;;;;;;19.38;11.07;;;;;;;;;;5041526;28;20534;-77
2022/12/13 01:02:27;;;;;;;19.98;11.25;;;;;;;;;;5035121;28;20091;-78
2022/12/13 01:04:53;;;;;;;18.42;10.80;;;;;;;;;;5053295;28;20096;-78
2022/12/13 01:07:19;;;;;;;18.45;11.30;;;;;;;;;;5051167;28;20410;-78
2022/12/13 01:09:45;;;;;;;19.35;11.02;;;;;;;;;;5053009;28;20025;-78
2022/12/13 01:12:17;;;;;;;18.08;10.63;;;;;;;;;;5052945;28;20029;-78
2022/12/13 01:14:52;;;;;;;17.15;10.23;;;;;;;;;;5037014;28;20017;-78
2022/12/13 01:17:30;;;;;;;;;;;;;;;;;;;;;
2022/12/13 01:20:05;;;;;;;17.83;10.40;;;;;;;;;;5049563;28;20037;-78
2022/12/13 01:22:31;;;;;;;19.67;11.35;;;;;;;;;;5031281;28;20060;-79
2022/12/13 01:24:57;;;;;;;18.95;10.30;;;;;;;;;;5052719;28;20386;-78
2022/12/13 01:27:30;;;;;;;19.08;11.00;;;;;;;;;;5052109;28;20123;-77
2022/12/13 01:29:56;;;;;;;19.63;11.00;;;;;;;;;;5051574;28;20033;-80
2022/12/13 01:32:22;;;;;;;18.02;10.50;;;;;;;;;;5052523;28;20041;-79
2022/12/13 01:34:51;;;;;;;17.45;10.68;;;;;;;;;;5052527;28;20063;-79
2022/12/13 01:37:28;;;;;;;23.98;12.38;;;;;;;;;;5051454;28;20104;-78
2022/12/13 01:40:10;;;;;;;21.08;11.18;;;;;;;;;;5052994;28;20025;-78
2022/12/13 01:42:39;;;;;;;20.42;11.35;;;;;;;;;;5043213;28;20116;-79
2022/12/13 01:45:15;;;;;;;19.60;11.38;;;;;;;;;;5039508;28;20065;-81
2022/12/13 01:47:46;;;;;;;18.05;11.43;;;;;;;;;;5052766;28;20036;-80
2022/12/13 01:50:18;;;;;;;20.55;12.13;;;;;;;;;;5034267;28;20033;-79
2022/12/13 01:52:48;;;;;;;22.55;11.25;;;;;;;;;;5053711;28;20040;-80
2022/12/13 01:55:32;;;;;;;19.33;11.82;;;;;;;;;;5054227;28;20040;-79
2022/12/13 02:01:18;;;;;;;18.70;11.13;;;;;;;;;;5061712;28;20025;-80
2022/12/13 02:04:31;;;;;;;19.30;11.75;;;;;;;;;;5219666;22;20063;-79
2022/12/13 02:07:35;;;;;;;18.42;11.20;;;;;;;;;;5026663;28;20037;-79
2022/12/13 02:11:06;;;;;;;;;;;;;;;;;;;;;
2022/12/13 02:19:01;;;;;;;18.25;10.98;;;;;;;;;;5263375;22;20057;-77
2022/12/13 02:30:56;;;;;;;24.23;14.18;;;;;;;;;;4992834;28;20038;-76
2022/12/13 02:36:27;;;;;;;25.08;14.15;;;;;;;;;;5135423;22;20053;-76
2022/12/13 02:39:18;;;;;;;;;;;;;;;;;;;;;
2022/12/13 02:48:07;;;;;;;22.30;13.02;;;;;;;;;;5039867;22;20071;-76
2022/12/13 02:50:34;;;;;;;23.95;13.02;;;;;;;;;;5056642;28;20040;-75
2022/12/13 02:53:04;;;;;;;24.65;13.68;;;;;;;;;;5044158;28;20025;-75
2022/12/13 02:55:34;;;;;;;28.67;14.90;;;;;;;;;;5046066;28;20029;-75
2022/12/13 02:58:03;;;;;;;26.13;14.27;;;;;;;;;;5061285;28;20049;-76
2022/12/13 03:00:36;;;;;;;21.27;13.07;;;;;;;;;;5058431;28;20033;-76
2022/12/13 03:03:05;;;;;;;25.55;12.25;;;;;;;;;;5061752;28;20025;-74
2022/12/13 03:08:33;;;;;;;22.63;12.63;;;;;;;;;;5050572;28;20059;-75
2022/12/13 03:11:07;;;;;;;20.70;12.77;;;;;;;;;;5051465;28;20036;-75
2022/12/13 03:13:55;;;;;;;25.55;15.35;;;;;;;;;;5049855;28;20071;-73
2022/12/13 03:16:24;;;;;;;22.67;13.43;;;;;;;;;;5032947;28;20091;-76
2022/12/13 03:18:54;;;;;;;22.17;13.88;;;;;;;;;;5049953;28;20457;-74
2022/12/13 03:21:25;;;;;;;22.13;12.48;;;;;;;;;;5032655;28;20025;-74
2022/12/13 03:23:52;;;;;;;23.33;13.68;;;;;;;;;;5051503;28;20064;-75
2022/12/13 03:26:22;;;;;;;26.20;14.32;;;;;;;;;;5050890;28;20029;-75
2022/12/13 03:28:48;;;;;;;21.23;12.93;;;;;;;;;;5049258;28;20037;-75
2022/12/13 03:31:14;;;;;;;25.10;13.65;;;;;;;;;;5051703;28;20274;-75
2022/12/13 03:33:40;;;;;;;24.80;14.27;;;;;;;;;;5055144;28;20037;-76
2022/12/13 03:36:13;;;;;;;24.30;13.65;;;;;;;;;;5020998;28;20022;-73
2022/12/13 03:38:40;;;;;;;23.95;14.10;;;;;;;;;;5053779;28;20017;-74
2022/12/13 03:41:13;;;;;;;24.10;14.60;;;;;;;;;;5054494;28;20028;-75
2022/12/13 03:43:42;;;;;;;27.50;13.90;;;;;;;;;;5036828;28;20151;-75
2022/12/13 03:46:08;;;;;;;26.30;15.57;;;;;;;;;;5051911;28;20033;-75
2022/12/13 03:48:35;;;;;;;26.48;15.27;;;;;;;;;;5034014;28;20040;-75
2022/12/13 03:51:04;;;;;;;28.45;15.93;;;;;;;;;;5036079;28;20621;-75
2022/12/13 03:53:35;;;;;;;27.02;15.15;;;;;;;;;;5053024;28;20625;-76
2022/12/13 03:56:04;;;;;;;25.02;14.02;;;;;;;;;;5036502;28;20017;-75
2022/12/13 03:58:31;;;;;;;27.77;15.15;;;;;;;;;;5052497;28;20106;-74
2022/12/13 04:01:00;;;;;;;27.33;15.43;;;;;;;;;;5052786;28;20596;-74
2022/12/13 04:03:28;;;;;;;30.45;14.85;;;;;;;;;;5053588;28;20048;-75
2022/12/13 04:05:54;;;;;;;31.98;17.48;;;;;;;;;;5053100;28;20102;-76
2022/12/13 04:08:23;;;;;;;30.10;15.93;;;;;;;;;;5053275;28;20025;-75
2022/12/13 04:10:49;;;;;;;31.73;16.45;;;;;;;;;;5035797;28;20495;-74
2022/12/13 04:13:34;;;;;;;30.13;16.05;;;;;;;;;;5053791;28;20490;-74
2022/12/13 04:16:08;;;;;;;29.58;15.65;;;;;;;;;;5054091;28;20127;-74
2022/12/13 04:18:36;;;;;;;28.45;15.43;;;;;;;;;;5053085;28;20368;-75
2022/12/13 04:21:04;;;;;;;30.80;16.55;;;;;;;;;;5053351;28;20159;-74
2022/12/13 04:23:34;;;;;;;29.30;16.35;;;;;;;;;;5053774;28;20049;-72
2022/12/13 04:26:00;;;;;;;35.70;17.92;;;;;;;;;;5053729;28;20491;-73
2022/12/13 04:28:28;;;;;;;31.38;16.77;;;;;;;;;;5052998;28;21977;-74
2022/12/13 04:30:55;;;;;;;30.48;15.48;;;;;;;;;;5036112;28;20025;-74
2022/12/13 04:33:24;;;;;;;29.23;16.73;;;;;;;;;;5052773;28;20021;-73
2022/12/13 04:35:53;;;;;;;30.15;15.65;;;;;;;;;;5032805;28;20030;-74
2022/12/13 04:38:19;;;;;;;29.17;15.48;;;;;;;;;;5029302;28;20251;-74
2022/12/13 04:40:53;;;;;;;30.58;16.27;;;;;;;;;;5053435;28;20021;-75
2022/12/13 04:43:22;;;;;;;30.27;15.90;;;;;;;;;;5035613;28;20091;-76
2022/12/13 04:45:48;;;;;;;28.95;15.43;;;;;;;;;;5054051;28;20032;-75
2022/12/13 04:48:17;;;;;;;29.27;16.20;;;;;;;;;;5034630;28;20029;-75
2022/12/13 04:50:44;;;;;;;28.50;15.73;;;;;;;;;;5019168;28;20447;-74
2022/12/13 04:53:16;;;;;;;30.75;16.58;;;;;;;;;;5051907;28;20398;-75
2022/12/13 04:55:42;;;;;;;24.20;13.65;;;;;;;;;;5035130;28;20550;-75
2022/12/13 04:58:08;;;;;;;24.50;13.25;;;;;;;;;;5052696;28;20029;-74
2022/12/13 05:00:37;;;;;;;26.65;14.30;;;;;;;;;;5053522;28;20029;-74
2022/12/13 05:03:24;;;;;;;27.83;15.93;;;;;;;;;;5053137;28;20032;-75
2022/12/13 05:05:50;;;;;;;28.35;14.38;;;;;;;;;;5035276;28;20174;-74
2022/12/13 05:08:16;;;;;;;27.65;13.93;;;;;;;;;;5051094;28;20029;-74
2022/12/13 05:10:44;;;;;;;29.55;15.65;;;;;;;;;;5052005;28;20021;-76
2022/12/13 05:13:10;;;;;;;29.83;14.38;;;;;;;;;;5034819;28;20147;-74
2022/12/13 05:15:37;;;;;;;27.67;15.45;;;;;;;;;;5051796;28;20517;-74
2022/12/13 05:18:04;;;;;;;36.28;18.15;;;;;;;;;;5053510;28;20041;-74
2022/12/13 05:20:30;;;;;;;28.50;13.85;;;;;;;;;;5053690;28;20033;-74
2022/12/13 05:22:57;;;;;;;28.27;15.68;;;;;;;;;;5052037;28;20021;-75
2022/12/13 05:25:26;;;;;;;30.02;15.18;;;;;;;;;;5052667;28;20025;-75
2022/12/13 05:27:53;;;;;;;27.08;13.18;;;;;;;;;;5052565;28;20200;-74
2022/12/13 05:30:35;;;;;;;25.65;13.43;;;;;;;;;;5035027;28;20515;-76
2022/12/13 05:33:03;;;;;;;27.27;14.30;;;;;;;;;;5034609;28;20055;-75
2022/12/13 05:35:30;;;;;;;26.73;15.25;;;;;;;;;;5051826;28;20491;-75
2022/12/13 05:37:56;;;;;;;33.08;16.05;;;;;;;;;;5034324;28;20380;-74
2022/12/13 05:40:25;;;;;;;33.15;16.10;;;;;;;;;;5053022;28;20023;-74
2022/12/13 05:42:53;;;;;;;35.05;16.95;;;;;;;;;;5054332;28;20016;-74
2022/12/13 05:45:28;;;;;;;30.35;14.63;;;;;;;;;;5052640;28;20224;-75
2022/12/13 05:47:56;;;;;;;29.90;14.95;;;;;;;;;;5033514;28;20364;-74
2022/12/13 05:50:25;;;;;;;24.08;13.43;;;;;;;;;;5052282;28;20017;-74
2022/12/13 05:52:53;;;;;;;31.20;14.63;;;;;;;;;;5054257;28;20013;-75
2022/12/13 05:55:22;;;;;;;27.27;14.20;;;;;;;;;;5035148;28;20097;-76
2022/12/13 05:57:48;;;;;;;28.13;13.52;;;;;;;;;;5052384;28;20059;-74
2022/12/13 06:00:14;;;;;;;25.30;12.80;;;;;;;;;;5034543;28;20064;-75
2022/12/13 06:02:44;;;;;;;22.33;12.65;;;;;;;;;;5051836;28;20021;-75
2022/12/13 06:05:21;;;;;;;;;;;;;;;;;;;;;
2022/12/13 06:07:49;;;;;;;22.58;11.82;;;;;;;;;;5051751;28;20029;-74
2022/12/13 06:10:22;;;;;;;22.40;11.77;;;;;;;;;;5050394;28;20619;-75
2022/12/13 06:12:48;;;;;;;22.98;11.70;;;;;;;;;;5052425;28;20484;-75
2022/12/13 06:15:14;;;;;;;27.48;12.52;;;;;;;;;;5051636;28;20460;-77
2022/12/13 06:17:40;;;;;;;22.65;12.05;;;;;;;;;;5051428;28;20025;-75
2022/12/13 06:20:07;;;;;;;24.60;13.05;;;;;;;;;;5050940;28;20020;-74
2022/12/13 06:22:33;;;;;;;27.88;13.90;;;;;;;;;;5051792;28;20566;-74
2022/12/13 06:25:01;;;;;;;26.75;13.05;;;;;;;;;;5051509;28;20025;-75
2022/12/13 06:27:27;;;;;;;24.83;12.20;;;;;;;;;;5033587;28;20119;-73
2022/12/13 06:29:57;;;;;;;24.77;12.50;;;;;;;;;;5051614;28;20029;-73
2022/12/13 06:32:30;;;;;;;26.05;13.52;;;;;;;;;;5034213;28;20475;-74
2022/12/13 06:34:58;;;;;;;26.45;13.32;;;;;;;;;;5051673;28;20057;-73
2022/12/13 06:37:27;;;;;;;25.77;13.00;;;;;;;;;;5032187;28;20037;-76
2022/12/13 06:39:53;;;;;;;27.52;13.57;;;;;;;;;;5050735;28;20098;-75
2022/12/13 06:42:19;;;;;;;25.08;12.70;;;;;;;;;;5051410;28;20064;-74
2022/12/13 06:44:50;;;;;;;24.83;12.10;;;;;;;;;;5050146;28;20028;-74
2022/12/13 06:47:18;;;;;;;24.15;12.10;;;;;;;;;;5050586;28;20117;-73
2022/12/13 06:49:52;;;;;;;24.77;13.23;;;;;;;;;;5051093;28;20108;-74
2022/12/13 06:52:18;;;;;;;24.23;12.60;;;;;;;;;;5051046;28;20060;-74
2022/12/13 06:54:44;;;;;;;26.25;13.68;;;;;;;;;;5033412;28;20025;-74
2022/12/13 06:57:14;;;;;;;27.80;13.65;;;;;;;;;;5050763;28;20024;-73
2022/12/13 06:59:40;;;;;;;26.75;13.52;;;;;;;;;;5051622;28;20107;-75
2022/12/13 07:02:07;;;;;;;23.95;12.52;;;;;;;;;;5049721;28;20435;-74
2022/12/13 07:04:33;;;;;;;24.48;13.27;;;;;;;;;;5050457;28;20053;-75
2022/12/13 07:07:06;;;;;;;24.40;12.63;;;;;;;;;;5055536;28;20114;-73
2022/12/13 07:09:33;;;;;;;21.90;11.30;;;;;;;;;;5051368;28;20047;-74
2022/12/13 07:12:01;;;;;;;23.73;12.35;;;;;;;;;;5033652;28;20052;-74
2022/12/13 07:14:30;;;;;;;30.52;13.70;;;;;;;;;;5049722;28;20072;-75
2022/12/13 07:16:58;;;;;;;30.65;14.55;;;;;;;;;;5051121;28;20017;-74
2022/12/13 07:19:27;;;;;;;22.13;12.48;;;;;;;;;;5051346;28;20475;-74
2022/12/13 07:21:55;;;;;;;27.73;14.63;;;;;;;;;;5049324;28;20518;-75
2022/12/13 07:24:21;;;;;;;23.60;11.27;;;;;;;;;;5051417;28;20039;-74
2022/12/13 07:26:52;;;;;;;25.88;12.75;;;;;;;;;;5033139;28;20029;-73
2022/12/13 07:29:24;;;;;;;28.88;12.63;;;;;;;;;;5050410;28;20036;-74
2022/12/13 07:31:50;;;;;;;22.83;11.80;;;;;;;;;;5050675;28;20033;-75
2022/12/13 07:34:19;;;;;;;21.52;11.98;;;;;;;;;;5049687;28;20052;-74
2022/12/13 07:36:45;;;;;;;21.98;12.40;;;;;;;;;;5033794;28;20021;-74
2022/12/13 07:39:11;;;;;;;21.42;11.15;;;;;;;;;;5051721;28;20052;-78
2022/12/13 07:41:37;;;;;;;23.08;12.18;;;;;;;;;;5057979;28;20017;-78
2022/12/13 07:44:03;;;;;;;21.58;11.15;;;;;;;;;;5051727;28;20441;-74
2022/12/13 07:46:32;;;;;;;22.70;12.00;;;;;;;;;;5067393;28;20025;-74
2022/12/13 07:48:58;;;;;;;23.30;11.35;;;;;;;;;;5050621;28;20048;-79
2022/12/13 07:51:27;;;;;;;22.67;11.43;;;;;;;;;;5053516;28;20037;-78
2022/12/13 07:53:56;;;;;;;21.15;11.68;;;;;;;;;;5051567;28;20040;-80
2022/12/13 07:56:27;;;;;;;20.92;10.80;;;;;;;;;;5051212;28;20435;-76
2022/12/13 07:58:53;;;;;;;19.58;10.68;;;;;;;;;;5031946;28;20529;-76
2022/12/13 08:01:19;;;;;;;17.95;10.15;;;;;;;;;;5050921;28;20044;-74
2022/12/13 08:03:47;;;;;;;18.73;9.82;;;;;;;;;;5032526;28;20487;-73
2022/12/13 08:06:13;;;;;;;20.58;9.93;;;;;;;;;;5052738;28;20024;-75
2022/12/13 08:08:39;;;;;;;23.63;10.82;;;;;;;;;;5067337;28;20033;-74
2022/12/13 08:11:15;;;;;;;18.77;10.70;;;;;;;;;;5069909;28;20038;-76
2022/12/13 08:13:41;;;;;;;26.25;11.73;;;;;;;;;;5071269;28;20544;-76
2022/12/13 08:16:09;;;;;;;18.98;11.38;;;;;;;;;;5072638;28;20024;-73
2022/12/13 08:18:35;;;;;;;22.20;13.77;;;;;;;;;;5056788;28;20410;-74
2022/12/13 08:21:02;;;;;;;19.13;11.05;;;;;;;;;;5075142;28;20020;-74
2022/12/13 08:23:29;;;;;;;16.58;9.50;;;;;;;;;;5075456;28;20021;-74
2022/12/13 08:25:55;;;;;;;17.98;11.10;;;;;;;;;;5072624;28;20053;-72
2022/12/13 08:28:22;;;;;;;19.33;10.65;;;;;;;;;;5055570;28;20092;-74
2022/12/13 08:30:48;;;;;;;17.00;9.95;;;;;;;;;;5054429;28;20478;-73
2022/12/13 08:33:14;;;;;;;19.15;9.48;;;;;;;;;;5054307;28;20017;-75
2022/12/13 08:35:40;;;;;;;19.02;11.70;;;;;;;;;;5054428;28;20367;-75
2022/12/13 08:38:07;;;;;;;19.67;11.48;;;;;;;;;;5053647;28;20027;-74
2022/12/13 08:40:33;;;;;;;19.30;10.90;;;;;;;;;;5053741;28;20462;-74
2022/12/13 08:42:59;;;;;;;20.08;11.05;;;;;;;;;;5053921;28;20031;-74
2022/12/13 08:45:26;;;;;;;18.77;11.13;;;;;;;;;;5054093;28;20401;-74
2022/12/13 08:47:54;;;;;;;20.92;11.07;;;;;;;;;;5053956;28;20025;-75
2022/12/13 08:50:21;;;;;;;18.80;11.70;;;;;;;;;;5053874;28;20041;-73
2022/12/13 08:52:46;;;;;;;19.00;11.45;;;;;;;;;;5053804;28;20021;-74
2022/12/13 08:55:13;;;;;;;19.88;11.20;;;;;;;;;;5053496;28;20475;-74
2022/12/13 08:57:40;;;;;;;18.80;11.60;;;;;;;;;;5053149;28;20029;-74
2022/12/13 09:00:06;;;;;;;17.25;10.80;;;;;;;;;;5053931;28;20033;-74
2022/12/13 09:02:32;;;;;;;18.67;11.02;;;;;;;;;;5053623;28;20025;-77
2022/12/13 09:04:58;;;;;;;19.85;11.23;;;;;;;;;;5053997;28;20407;-77
2022/12/13 09:07:24;;;;;;;22.65;12.20;;;;;;;;;;5052770;28;20033;-74
2022/12/13 09:09:50;;;;;;;21.88;12.15;;;;;;;;;;5053634;28;20192;-73
2022/12/13 09:12:17;;;;;;;22.27;11.60;;;;;;;;;;5053343;28;20458;-74
2022/12/13 09:14:43;;;;;;;22.83;12.68;;;;;;;;;;5053590;28;20099;-76
2022/12/13 09:17:09;;;;;;;21.55;12.15;;;;;;;;;;5053246;28;20075;-76
2022/12/13 09:19:35;;;;;;;21.70;12.70;;;;;;;;;;5053769;28;20025;-77
2022/12/13 09:22:01;;;;;;;26.05;13.52;;;;;;;;;;5053628;28;20033;-75
2022/12/13 09:24:27;;;;;;;20.73;12.13;;;;;;;;;;5053746;28;20075;-73
2022/12/13 09:26:53;;;;;;;16.90;10.85;;;;;;;;;;5052756;28;20091;-76
2022/12/13 09:29:19;;;;;;;18.48;10.63;;;;;;;;;;5052383;28;20735;-74
2022/12/13 09:31:45;;;;;;;18.13;9.77;;;;;;;;;;5053514;28;20039;-72
2022/12/13 09:34:11;;;;;;;19.70;11.32;;;;;;;;;;5037464;28;20032;-72
2022/12/13 09:36:37;;;;;;;20.42;11.15;;;;;;;;;;5056456;28;20032;-75
2022/12/13 09:39:04;;;;;;;19.88;11.50;;;;;;;;;;5034428;28;20041;-74
2022/12/13 09:41:45;;;;;;;19.80;11.77;;;;;;;;;;5053199;28;20759;-75
2022/12/13 09:44:25;;;;;;;22.15;11.52;;;;;;;;;;5052649;28;20447;-74
2022/12/13 09:46:52;;;;;;;23.63;11.65;;;;;;;;;;5047433;28;20395;-72
2022/12/13 09:49:26;;;;;;;22.45;11.85;;;;;;;;;;5040453;28;20061;-73
2022/12/13 09:51:54;;;;;;;19.50;11.52;;;;;;;;;;5032950;28;20460;-73
2022/12/13 09:54:21;;;;;;;23.23;11.25;;;;;;;;;;5015441;28;20025;-75
2022/12/13 09:56:53;;;;;;;21.45;12.70;;;;;;;;;;5015669;28;20079;-74
2022/12/13 09:59:22;;;;;;;24.30;11.85;;;;;;;;;;5041193;28;20044;-73
2022/12/13 10:01:48;;;;;;;20.95;11.50;;;;;;;;;;5076283;28;20024;-74
2022/12/13 10:04:15;;;;;;;29.38;14.05;;;;;;;;;;5078477;28;20024;-76
2022/12/13 10:06:41;;;;;;;27.00;13.98;;;;;;;;;;5082784;28;20039;-74
2022/12/13 10:09:10;;;;;;;25.23;13.27;;;;;;;;;;5078821;28;20028;-77
2022/12/13 10:11:37;;;;;;;25.23;13.20;;;;;;;;;;5074768;28;20031;-75
2022/12/13 10:14:14;;;;;;;21.52;12.55;;;;;;;;;;5072763;28;20100;-74
2022/12/13 10:16:51;;;;;;;23.58;13.30;;;;;;;;;;5054470;28;20478;-74
2022/12/13 10:19:17;;;;;;;25.20;13.75;;;;;;;;;;5053576;28;20140;-75
2022/12/13 10:21:44;;;;;;;26.67;14.10;;;;;;;;;;5072042;28;20486;-74
2022/12/13 10:24:19;;;;;;;23.75;13.75;;;;;;;;;;5072288;28;20028;-74
2022/12/13 10:26:45;;;;;;;24.60;13.88;;;;;;;;;;5071941;28;20474;-75
2022/12/13 10:29:11;;;;;;;24.75;12.63;;;;;;;;;;5071298;28;20448;-74
2022/12/13 10:31:48;;;;;;;22.98;12.77;;;;;;;;;;5071765;28;20511;-74
2022/12/13 10:34:18;;;;;;;22.40;12.68;;;;;;;;;;5071881;28;20036;-73
2022/12/13 10:36:44;;;;;;;24.50;12.90;;;;;;;;;;5072040;28;20479;-73
2022/12/13 10:39:17;;;;;;;23.30;12.75;;;;;;;;;;5071313;28;20033;-74
2022/12/13 10:41:46;;;;;;;20.23;11.63;;;;;;;;;;5072208;28;20082;-75
2022/12/13 10:44:12;;;;;;;24.27;13.00;;;;;;;;;;5071861;28;20398;-74
2022/12/13 10:46:39;;;;;;;24.70;12.13;;;;;;;;;;5051835;28;20120;-74
2022/12/13 10:49:16;;;;;;;22.45;12.35;;;;;;;;;;5049246;28;20029;-74
2022/12/13 10:51:42;;;;;;;24.23;12.27;;;;;;;;;;5061807;28;20036;-74
2022/12/13 10:54:15;;;;;;;21.70;12.13;;;;;;;;;;5066784;28;20032;-69
2022/12/13 10:56:52;;;;;;;19.42;11.38;;;;;;;;;;5033457;28;20513;-73
2022/12/13 10:59:19;;;;;;;20.45;11.23;;;;;;;;;;5050638;28;20037;-73
2022/12/13 11:01:46;;;;;;;17.85;10.27;;;;;;;;;;5033904;28;20031;-72
2022/12/13 11:04:23;;;;;;;22.30;11.55;;;;;;;;;;5052136;28;20029;-73
2022/12/13 11:06:49;;;;;;;22.00;11.40;;;;;;;;;;5052511;28;20029;-74
2022/12/13 11:09:32;;;;;;;19.90;10.05;;;;;;;;;;5051409;28;20044;-73
2022/12/13 11:12:00;;;;;;;17.20;9.70;;;;;;;;;;5052629;28;20025;-74
2022/12/13 11:14:31;;;;;;;18.90;9.38;;;;;;;;;;5052636;28;20025;-76
2022/12/13 11:16:59;;;;;;;18.85;9.43;;;;;;;;;;5052339;28;20048;-72
2022/12/13 11:19:26;;;;;;;17.83;8.98;;;;;;;;;;5051599;28;20033;-74
2022/12/13 11:21:53;;;;;;;15.18;9.40;;;;;;;;;;5051307;28;20071;-74
2022/12/13 11:24:30;;;;;;;17.08;9.52;;;;;;;;;;5052182;28;20063;-73
2022/12/13 11:27:09;;;;;;;17.42;9.73;;;;;;;;;;5051759;28;20025;-72
2022/12/13 11:29:53;;;;;;;14.52;7.88;;;;;;;;;;5051475;28;20036;-73
2022/12/13 11:32:19;;;;;;;18.92;9.90;;;;;;;;;;5050979;28;20463;-73
2022/12/13 11:35:01;;;;;;;16.48;8.80;;;;;;;;;;5050868;28;20079;-72
2022/12/13 11:37:30;;;;;;;16.73;8.95;;;;;;;;;;5050690;28;20055;-75
2022/12/13 11:39:59;;;;;;;15.07;8.23;;;;;;;;;;5051482;28;20075;-72
2022/12/13 11:42:28;;;;;;;17.30;9.48;;;;;;;;;;5050746;28;20029;-73
2022/12/13 11:44:54;;;;;;;15.02;8.38;;;;;;;;;;5049669;28;20479;-73
2022/12/13 11:47:26;;;;;;;15.70;7.63;;;;;;;;;;5050528;28;20094;-72
2022/12/13 11:49:52;;;;;;;15.80;9.32;;;;;;;;;;5051268;28;20039;-73
2022/12/13 11:52:18;;;;;;;15.25;8.40;;;;;;;;;;5054565;28;20017;-73
2022/12/13 11:54:54;;;;;;;14.18;8.45;;;;;;;;;;5054797;28;20021;-72
2022/12/13 11:57:35;;;;;;;14.15;8.45;;;;;;;;;;5054255;28;20029;-73
2022/12/13 12:00:04;;;;;;;16.20;9.18;;;;;;;;;;5054818;28;20032;-70
2022/12/13 12:02:34;;;;;;;13.30;7.90;;;;;;;;;;5054808;28;20044;-73
2022/12/13 12:05:04;;;;;;;12.37;7.73;;;;;;;;;;5054957;28;20036;-73
2022/12/13 12:07:38;;;;;;;11.77;8.02;;;;;;;;;;5054143;28;20037;-73
2022/12/13 12:10:15;;;;;;;14.02;7.68;;;;;;;;;;5053241;28;20028;-74
2022/12/13 12:12:43;;;;;;;13.30;8.48;;;;;;;;;;5054853;28;20041;-73
2022/12/13 12:15:12;;;;;;;13.00;7.30;;;;;;;;;;5054868;28;20025;-72
2022/12/13 12:17:41;;;;;;;14.43;7.93;;;;;;;;;;5053835;28;20387;-76
2022/12/13 12:20:22;;;;;;;15.85;8.25;;;;;;;;;;5053553;28;20028;-72
2022/12/13 12:22:48;;;;;;;14.52;8.55;;;;;;;;;;5054064;28;20399;-72
2022/12/13 12:25:20;;;;;;;17.48;9.75;;;;;;;;;;5055166;28;20056;-74
2022/12/13 12:27:51;;;;;;;20.35;11.50;;;;;;;;;;5053762;28;20033;-73
2022/12/13 12:30:17;;;;;;;;;;;;;;;;;;5055142;28;20024;-73
2022/12/13 12:32:52;;;;;;;18.23;10.10;;;;;;;;;;5054969;28;19959;-74
2022/12/13 12:35:24;;;;;;;18.27;10.23;;;;;;;;;;5054775;28;20025;-73
2022/12/13 12:38:01;;;;;;;16.75;9.85;;;;;;;;;;5053921;28;20057;-75
2022/12/13 12:40:46;;;;;;;13.13;7.43;;;;;;;;;;5052841;28;20036;-75
2022/12/13 12:43:26;;;;;;;13.27;8.00;;;;;;;;;;5052966;28;20029;-80
2022/12/13 12:46:03;;;;;;;12.65;7.82;;;;;;;;;;5076193;28;20021;-81
2022/12/13 12:48:31;;;;;;;13.98;8.65;;;;;;;;;;5074854;28;20033;-79
2022/12/13 12:51:10;;;;;;;12.27;7.32;;;;;;;;;;5071538;28;20037;-74
2022/12/13 12:53:36;;;;;;;11.75;7.15;;;;;;;;;;5051516;28;20086;-74
2022/12/13 12:56:08;;;;;;;11.63;6.63;;;;;;;;;;5053421;28;20033;-74
2022/12/13 12:58:37;;;;;;;12.85;7.75;;;;;;;;;;5053243;28;20455;-75
2022/12/13 13:01:22;;;;;;;11.95;6.50;;;;;;;;;;5053669;28;20112;-74
2022/12/13 13:03:49;;;;;;;15.18;7.60;;;;;;;;;;5053170;28;20032;-73
2022/12/13 13:06:19;;;;;;;15.75;9.00;;;;;;;;;;5053985;28;20032;-73
2022/12/13 13:08:58;;;;;;;17.63;9.25;;;;;;;;;;5053598;28;20021;-74
2022/12/13 13:11:25;;;;;;;14.88;8.80;;;;;;;;;;5054011;28;20021;-74
2022/12/13 13:13:57;;;;;;;19.85;9.82;;;;;;;;;;5054195;28;20025;-74
2022/12/13 13:16:26;;;;;;;17.75;9.95;;;;;;;;;;5054107;28;20489;-74
2022/12/13 13:18:53;;;;;;;13.38;7.88;;;;;;;;;;5053068;28;20186;-75
2022/12/13 13:21:25;;;;;;;22.23;11.20;;;;;;;;;;5053832;28;20033;-74
2022/12/13 13:24:12;;;;;;;20.00;11.48;;;;;;;;;;5053351;28;20044;-74
2022/12/13 13:26:44;;;;;;;22.48;11.93;;;;;;;;;;5053681;28;20033;-74
2022/12/13 13:29:23;;;;;;;18.50;11.30;;;;;;;;;;5052866;28;20028;-74
2022/12/13 13:31:55;;;;;;;21.00;11.43;;;;;;;;;;5053610;28;20021;-74
2022/12/13 13:34:22;;;;;;;18.67;9.63;;;;;;;;;;5053533;28;20493;-74
2022/12/13 13:36:51;;;;;;;19.02;10.43;;;;;;;;;;5053410;28;20383;-74
2022/12/13 13:39:18;;;;;;;15.35;9.60;;;;;;;;;;5053073;28;20033;-74
2022/12/13 13:41:56;;;;;;;17.80;9.68;;;;;;;;;;5053360;28;20106;-75
2022/12/13 13:44:31;;;;;;;18.92;9.40;;;;;;;;;;5053634;28;20387;-75
2022/12/13 13:47:23;;;;;;;19.50;10.23;;;;;;;;;;5053731;28;20037;-75
2022/12/13 13:49:49;;;;;;;18.52;10.18;;;;;;;;;;5048561;28;20122;-74
2022/12/13 13:52:19;;;;;;;18.55;10.38;;;;;;;;;;5055432;28;20033;-74
2022/12/13 13:54:52;;;;;;;14.45;8.30;;;;;;;;;;5054756;28;20433;-75
2022/12/13 13:57:21;;;;;;;23.63;11.93;;;;;;;;;;5051189;28;20087;-74
2022/12/13 14:00:01;;;;;;;19.42;10.30;;;;;;;;;;5053063;28;20033;-74
2022/12/13 14:02:47;;;;;;;18.50;10.35;;;;;;;;;;5053029;28;20036;-73
2022/12/13 14:05:13;;;;;;;18.00;10.98;;;;;;;;;;5031854;28;20041;-73
2022/12/13 14:07:39;;;;;;;18.95;10.77;;;;;;;;;;5051973;28;20506;-74
2022/12/13 14:10:44;;;;;;;21.65;11.93;;;;;;;;;;5053236;28;20071;-74
2022/12/13 14:13:29;;;;;;;24.95;12.40;;;;;;;;;;5010418;28;20036;-74
2022/12/13 14:16:15;;;;;;;26.17;13.93;;;;;;;;;;5011105;28;20169;-72
2022/12/13 14:18:58;;;;;;;25.30;13.43;;;;;;;;;;5016187;28;20060;-73
2022/12/13 14:21:24;;;;;;;26.67;13.73;;;;;;;;;;5053315;28;20148;-74
2022/12/13 14:23:50;;;;;;;23.90;13.48;;;;;;;;;;5036076;28;20029;-73
2022/12/13 14:26:32;;;;;;;24.63;14.07;;;;;;;;;;5053150;28;20029;-74
2022/12/13 14:29:02;;;;;;;26.90;15.00;;;;;;;;;;5034124;28;20029;-74
2022/12/13 14:31:28;;;;;;;26.38;14.38;;;;;;;;;;5052729;28;20034;-73
2022/12/13 14:33:55;;;;;;;27.02;13.85;;;;;;;;;;5052759;28;20025;-74
2022/12/13 14:36:34;;;;;;;24.50;13.38;;;;;;;;;;5051609;28;20017;-75
2022/12/13 14:39:01;;;;;;;23.05;12.75;;;;;;;;;;5050649;28;20033;-73
2022/12/13 14:41:27;;;;;;;22.08;11.63;;;;;;;;;;5051280;28;20032;-73
2022/12/13 14:43:53;;;;;;;24.38;12.68;;;;;;;;;;5051621;28;20538;-74
2022/12/13 14:46:19;;;;;;;25.65;12.85;;;;;;;;;;5033922;28;20033;-74
2022/12/13 14:48:47;;;;;;;26.25;13.35;;;;;;;;;;5049576;28;20033;-75
2022/12/13 14:51:31;;;;;;;26.92;13.23;;;;;;;;;;5051318;28;20483;-74
2022/12/13 14:53:57;;;;;;;25.13;13.35;;;;;;;;;;5052177;28;20498;-75
2022/12/13 14:56:24;;;;;;;21.30;12.40;;;;;;;;;;5051454;28;20407;-77
2022/12/13 14:58:54;;;;;;;21.67;12.00;;;;;;;;;;5051199;28;20028;-76
2022/12/13 15:01:33;;;;;;;22.65;12.45;;;;;;;;;;5052204;28;20031;-75
2022/12/13 15:04:36;;;;;;;23.52;11.95;;;;;;;;;;5051782;28;20021;-75
2022/12/13 15:07:02;;;;;;;24.60;12.35;;;;;;;;;;4950782;29;20027;-77
2022/12/13 15:09:29;;;;;;;19.92;11.55;;;;;;;;;;5020864;28;20033;-77
2022/12/13 15:11:55;;;;;;;25.38;12.27;;;;;;;;;;5051483;28;20158;-74
2022/12/13 15:14:24;;;;;;;24.02;11.98;;;;;;;;;;5052210;28;20104;-77
2022/12/13 15:16:51;;;;;;;24.92;12.73;;;;;;;;;;5050117;28;20031;-76
2022/12/13 15:19:19;;;;;;;26.08;12.95;;;;;;;;;;5050713;28;20514;-74
2022/12/13 15:21:57;;;;;;;28.05;13.25;;;;;;;;;;5033274;28;20070;-74